createdAt,value
2018-06-10T00:01:46.514Z,18.10
2018-06-10T00:04:14.820Z,13.94
2018-06-10T00:06:43.082Z,12.60
2018-06-10T00:09:11.775Z,12.68
2018-06-10T00:11:40.438Z,15.40
2018-06-10T00:14:09.649Z,12.34
2018-06-10T00:16:37.926Z,11.90
2018-06-10T00:19:06.210Z,12.98
2018-06-10T00:21:34.501Z,14.26
2018-06-10T00:24:02.762Z,14.26
2018-06-10T00:26:31.069Z,13.40
2018-06-10T00:28:59.344Z,14.16
2018-06-10T00:31:27.632Z,13.06
2018-06-10T00:33:55.927Z,14.24
2018-06-10T00:36:24.238Z,16.02
2018-06-10T00:38:52.538Z,29.20
2018-06-10T00:41:20.842Z,13.96
2018-06-10T00:43:48.364Z,14.60
2018-06-10T00:46:16.686Z,16.70
2018-06-10T00:48:44.956Z,17.12
2018-06-10T00:51:13.248Z,15.64
2018-06-10T00:53:41.843Z,16.28
2018-06-10T00:56:10.980Z,15.42
2018-06-10T00:58:39.653Z,16.10
2018-06-10T01:01:07.971Z,15.88
2018-06-10T01:03:36.258Z,20.76
2018-06-10T01:06:05.564Z,14.70
2018-06-10T01:08:33.852Z,17.20
2018-06-10T01:11:02.150Z,18.42
2018-06-10T01:13:30.467Z,20.92
2018-06-10T01:15:58.743Z,15.10
2018-06-10T01:18:26.299Z,15.50
2018-06-10T01:20:54.571Z,17.52
2018-06-10T01:23:22.897Z,17.66
2018-06-10T01:25:51.161Z,19.36
2018-06-10T01:28:19.448Z,16.76
2018-06-10T01:30:47.753Z,20.62
2018-06-10T01:33:16.027Z,15.58
2018-06-10T01:35:44.340Z,20.46
2018-06-10T01:38:12.614Z,16.98
2018-06-10T01:40:41.490Z,14.64
2018-06-10T01:43:10.819Z,15.62
2018-06-10T01:45:39.895Z,20.80
2018-06-10T01:48:08.178Z,18.60
2018-06-10T01:50:36.490Z,16.04
2018-06-10T01:53:04.763Z,15.92
2018-06-10T01:55:33.082Z,19.98
2018-06-10T01:58:01.391Z,15.96
2018-06-10T02:00:29.677Z,20.66
2018-06-10T02:02:57.988Z,17.10
2018-06-10T02:05:26.280Z,14.68
2018-06-10T02:07:54.564Z,18.54
2018-06-10T02:10:22.856Z,19.34
2018-06-10T02:12:51.161Z,18.98
2018-06-10T02:15:19.457Z,21.80
2018-06-10T02:17:47.763Z,19.26
2018-06-10T02:20:16.037Z,18.10
2018-06-10T02:22:44.311Z,21.08
2018-06-10T02:25:11.853Z,16.16
2018-06-10T02:27:40.366Z,16.24
2018-06-10T02:30:08.680Z,18.80
2018-06-10T02:32:36.977Z,16.62
2018-06-10T02:35:05.331Z,19.14
2018-06-10T02:37:33.560Z,19.94
2018-06-10T02:40:01.874Z,19.50
2018-06-10T02:42:30.132Z,20.12
2018-06-10T02:44:58.454Z,19.68
2018-06-10T02:47:25.950Z,21.08
2018-06-10T02:49:54.234Z,24.94
2018-06-10T02:52:22.531Z,20.64
2018-06-10T02:54:50.812Z,17.06
2018-06-10T02:57:19.105Z,21.02
2018-06-10T02:59:47.373Z,17.96
2018-06-10T03:02:15.686Z,21.54
2018-06-10T03:04:43.962Z,22.24
2018-06-10T03:07:12.262Z,24.00
2018-06-10T03:09:41.237Z,23.22
2018-06-10T03:12:10.024Z,23.40
2018-06-10T03:14:38.288Z,27.72
2018-06-10T03:17:05.816Z,21.24
2018-06-10T03:19:34.127Z,26.08
2018-06-10T03:22:02.405Z,24.24
2018-06-10T03:24:29.923Z,24.02
2018-06-10T03:26:58.220Z,23.44
2018-06-10T03:29:26.493Z,28.38
2018-06-10T03:31:54.766Z,21.82
2018-06-10T03:34:23.074Z,26.06
2018-06-10T03:36:51.373Z,27.54
2018-06-10T03:39:19.650Z,27.82
2018-06-10T03:41:47.967Z,29.42
2018-06-10T03:44:15.457Z,24.22
2018-06-10T03:46:43.724Z,29.84
2018-06-10T03:49:12.014Z,31.58
2018-06-10T03:51:41.053Z,31.90
2018-06-10T03:54:10.277Z,28.84
2018-06-10T03:56:38.571Z,30.32
2018-06-10T03:59:06.148Z,29.02
2018-06-10T04:01:34.441Z,26.42
2018-06-10T04:04:02.708Z,39.04
2018-06-10T04:06:31.013Z,30.58
2018-06-10T04:08:59.284Z,25.44
2018-06-10T04:11:27.598Z,25.38
2018-06-10T04:13:55.877Z,26.14
2018-06-10T04:16:24.195Z,29.62
2018-06-10T04:18:51.712Z,27.14
2018-06-10T04:21:20.038Z,24.04
2018-06-10T04:23:48.301Z,31.04
2018-06-10T04:26:16.609Z,26.40
2018-06-10T04:28:44.881Z,28.18
2018-06-10T04:31:13.143Z,30.08
2018-06-10T04:33:41.781Z,27.26
2018-06-10T04:36:10.212Z,29.90
2018-06-10T04:38:38.509Z,31.44
2018-06-10T04:41:06.778Z,29.64
2018-06-10T04:43:35.092Z,26.36
2018-06-10T04:46:02.621Z,27.68
2018-06-10T04:48:30.162Z,30.82
2018-06-10T04:50:58.450Z,29.90
2018-06-10T04:53:26.754Z,33.10
2018-06-10T04:55:55.024Z,36.66
2018-06-10T04:58:23.324Z,37.64
2018-06-10T05:00:51.625Z,28.56
2018-06-10T05:03:19.889Z,33.92
2018-06-10T05:05:48.165Z,29.56
2018-06-10T05:08:16.477Z,27.80
2018-06-10T05:10:44.780Z,33.64
2018-06-10T05:13:13.157Z,28.80
2018-06-10T05:15:41.803Z,31.74
2018-06-10T05:18:10.246Z,36.22
2018-06-10T05:20:38.524Z,29.22
2018-06-10T05:23:06.838Z,28.74
2018-06-10T05:25:35.128Z,30.78
2018-06-10T05:28:03.439Z,30.84
2018-06-10T05:30:31.705Z,30.24
2018-06-10T05:32:59.208Z,32.14
2018-06-10T05:35:27.533Z,35.74
2018-06-10T05:37:55.825Z,37.42
2018-06-10T05:40:24.085Z,40.74
2018-06-10T05:42:55.389Z,42.54
2018-06-10T05:45:23.685Z,53.90
2018-06-10T05:47:51.961Z,46.60
2018-06-10T05:50:20.258Z,52.02
2018-06-10T05:52:47.770Z,46.88
2018-06-10T05:55:16.069Z,47.24
2018-06-10T05:57:44.358Z,54.46
2018-06-10T06:00:12.665Z,48.24
2018-06-10T06:02:41.783Z,53.72
2018-06-10T06:05:10.556Z,47.72
2018-06-10T06:07:39.764Z,63.62
2018-06-10T06:10:08.037Z,49.58
2018-06-10T06:12:36.333Z,52.26
2018-06-10T06:15:04.608Z,56.94
2018-06-10T06:17:32.901Z,53.50
2018-06-10T06:20:01.197Z,53.94
2018-06-10T06:22:28.700Z,56.26
2018-06-10T06:24:56.981Z,50.92
2018-06-10T06:27:25.302Z,52.96
2018-06-10T06:29:53.604Z,54.92
2018-06-10T06:32:21.894Z,49.66
2018-06-10T06:34:50.165Z,42.52
2018-06-10T06:37:18.465Z,41.98
2018-06-10T06:39:46.773Z,49.78
2018-06-10T06:42:14.280Z,47.42
2018-06-10T06:44:42.584Z,42.82
2018-06-10T06:47:10.538Z,49.82
2018-06-10T06:49:39.994Z,54.32
2018-06-10T06:52:08.269Z,57.30
2018-06-10T06:54:36.570Z,56.64
2018-06-10T06:57:04.088Z,52.10
2018-06-10T06:59:32.390Z,49.20
2018-06-10T07:02:00.697Z,46.70
2018-06-10T07:04:28.975Z,50.72
2018-06-10T07:06:57.267Z,45.72
2018-06-10T07:09:25.556Z,56.98
2018-06-10T07:11:53.853Z,54.66
2018-06-10T07:14:22.162Z,52.74
2018-06-10T07:16:50.426Z,56.36
2018-06-10T07:19:18.830Z,47.30
2018-06-10T07:21:47.093Z,61.62
2018-06-10T07:24:14.584Z,57.04
2018-06-10T07:26:42.879Z,52.94
2018-06-10T07:29:11.552Z,53.52
2018-06-10T07:31:40.465Z,45.80
2018-06-10T07:34:08.732Z,46.68
2018-06-10T07:36:36.262Z,46.66
2018-06-10T07:39:04.550Z,50.04
2018-06-10T07:41:32.877Z,53.56
2018-06-10T07:44:01.173Z,49.26
2018-06-10T07:46:29.465Z,45.86
2018-06-10T07:48:57.721Z,48.84
2018-06-10T07:51:26.022Z,48.68
2018-06-10T07:53:54.297Z,45.76
2018-06-10T07:56:22.610Z,61.44
2018-06-10T07:58:50.883Z,56.96
2018-06-10T08:01:19.213Z,55.64
2018-06-10T08:03:47.483Z,52.66
2018-06-10T08:06:15.783Z,62.96
2018-06-10T08:08:44.056Z,55.36
2018-06-10T08:11:12.569Z,59.02
2018-06-10T08:13:41.633Z,55.08
2018-06-10T08:16:10.762Z,56.48
2018-06-10T08:18:39.850Z,52.12
2018-06-10T08:21:08.100Z,57.36
2018-06-10T08:23:36.409Z,52.60
2018-06-10T08:26:03.953Z,61.96
2018-06-10T08:28:32.213Z,62.62
2018-06-10T08:31:00.474Z,54.18
2018-06-10T08:33:28.793Z,66.20
2018-06-10T08:35:56.298Z,62.90
2018-06-10T08:38:24.617Z,54.34
2018-06-10T08:40:52.918Z,55.64
2018-06-10T08:43:21.222Z,58.40
2018-06-10T08:45:49.524Z,60.02
2018-06-10T08:48:17.824Z,69.34
2018-06-10T08:50:46.233Z,66.60
2018-06-10T08:53:14.500Z,50.62
2018-06-10T08:55:42.778Z,62.34
2018-06-10T08:58:11.748Z,58.46
2018-06-10T09:00:40.636Z,67.64
2018-06-10T09:03:09.689Z,59.38
2018-06-10T09:05:37.970Z,57.74
2018-06-10T09:08:06.297Z,57.68
2018-06-10T09:10:34.579Z,71.28
2018-06-10T09:13:02.856Z,69.74
2018-06-10T09:15:30.382Z,65.22
2018-06-10T09:17:57.915Z,66.78
2018-06-10T09:20:26.276Z,70.00
2018-06-10T09:22:54.557Z,65.68
2018-06-10T09:25:22.918Z,61.10
2018-06-10T09:27:51.136Z,62.72
2018-06-10T09:30:19.447Z,61.30
2018-06-10T09:32:47.830Z,54.32
2018-06-10T09:35:16.110Z,57.50
2018-06-10T09:37:44.425Z,52.02
2018-06-10T09:40:12.781Z,49.54
2018-06-10T09:42:42.501Z,51.16
2018-06-10T09:45:12.198Z,50.52
2018-06-10T09:47:41.793Z,51.36
2018-06-10T09:50:11.220Z,46.60
2018-06-10T09:52:40.776Z,43.44
2018-06-10T09:55:09.805Z,48.16
2018-06-10T09:57:38.125Z,45.22
2018-06-10T10:00:06.444Z,41.46
2018-06-10T10:02:34.765Z,40.06
2018-06-10T10:05:02.284Z,34.14
2018-06-10T10:07:30.562Z,34.76
2018-06-10T10:09:58.877Z,38.44
2018-06-10T10:12:27.150Z,43.70
2018-06-10T10:14:55.528Z,40.64
2018-06-10T10:17:23.805Z,37.50
2018-06-10T10:19:52.113Z,38.42
2018-06-10T10:22:20.421Z,40.36
2018-06-10T10:24:48.711Z,35.50
2018-06-10T10:27:16.242Z,37.78
2018-06-10T10:29:44.551Z,35.20
2018-06-10T10:32:12.157Z,36.04
2018-06-10T10:34:41.648Z,40.42
2018-06-10T10:37:10.922Z,33.58
2018-06-10T10:39:40.438Z,39.98
2018-06-10T10:42:08.736Z,33.24
2018-06-10T10:44:37.069Z,30.48
2018-06-10T10:47:05.372Z,36.20
2018-06-10T10:49:33.674Z,32.94
2018-06-10T10:52:01.945Z,36.36
2018-06-10T10:54:30.221Z,33.84
2018-06-10T10:56:58.519Z,33.06
2018-06-10T10:59:26.790Z,30.34
2018-06-10T11:01:55.122Z,34.10
2018-06-10T11:04:23.376Z,32.60
2018-06-10T11:06:51.632Z,34.94
2018-06-10T11:09:19.933Z,40.76
2018-06-10T11:11:48.209Z,33.96
2018-06-10T11:14:16.513Z,35.40
2018-06-10T11:16:44.795Z,37.70
2018-06-10T11:19:13.098Z,36.82
2018-06-10T11:21:42.058Z,34.60
2018-06-10T11:24:13.613Z,35.22
2018-06-10T11:26:41.889Z,35.10
2018-06-10T11:29:11.164Z,35.26
2018-06-10T11:31:40.482Z,33.76
2018-06-10T11:34:08.765Z,34.52
2018-06-10T11:36:37.090Z,35.88
2018-06-10T11:39:05.380Z,35.64
2018-06-10T11:41:33.693Z,34.98
2018-06-10T11:44:01.982Z,36.80
2018-06-10T11:46:30.288Z,34.80
2018-06-10T11:48:57.820Z,32.48
2018-06-10T11:51:26.098Z,32.54
2018-06-10T11:53:54.452Z,28.74
2018-06-10T11:56:22.754Z,40.14
2018-06-10T11:58:51.053Z,29.34
2018-06-10T12:01:19.371Z,28.26
2018-06-10T12:03:47.643Z,27.14
2018-06-10T12:06:15.942Z,33.16
2018-06-10T12:08:44.226Z,28.80
2018-06-10T12:11:12.541Z,29.88
2018-06-10T12:13:42.152Z,29.04
2018-06-10T12:16:11.779Z,28.64
2018-06-10T12:18:40.676Z,29.12
2018-06-10T12:21:09.704Z,35.16
2018-06-10T12:23:39.204Z,29.36
2018-06-10T12:26:07.499Z,25.54
2018-06-10T12:28:35.790Z,25.58
2018-06-10T12:31:04.068Z,26.56
2018-06-10T12:33:32.373Z,27.70
2018-06-10T12:36:00.683Z,28.50
2018-06-10T12:38:28.990Z,29.18
2018-06-10T12:40:57.273Z,24.16
2018-06-10T12:43:25.571Z,25.36
2018-06-10T12:45:53.828Z,27.58
2018-06-10T12:48:25.578Z,26.84
2018-06-10T12:50:53.856Z,24.06
2018-06-10T12:53:22.126Z,21.26
2018-06-10T12:55:50.427Z,23.86
2018-06-10T12:58:18.689Z,23.86
2018-06-10T13:00:46.996Z,21.22
2018-06-10T13:03:16.129Z,20.20
2018-06-10T13:05:45.110Z,18.72
2018-06-10T13:08:13.410Z,20.44
2018-06-10T13:10:42.293Z,22.18
2018-06-10T13:13:10.650Z,20.58
2018-06-10T13:15:38.950Z,20.76
2018-06-10T13:18:07.247Z,23.10
2018-06-10T13:20:35.510Z,19.78
2018-06-10T13:23:03.773Z,15.60
2018-06-10T13:25:32.066Z,17.50
2018-06-10T13:28:00.341Z,18.88
2018-06-10T13:30:28.644Z,17.34
2018-06-10T13:32:56.920Z,19.08
2018-06-10T13:35:25.201Z,14.32
2018-06-10T13:37:53.469Z,13.12
2018-06-10T13:40:21.750Z,18.22
2018-06-10T13:42:50.018Z,14.62
2018-06-10T13:45:18.314Z,14.36
2018-06-10T13:47:46.582Z,15.66
2018-06-10T13:50:16.001Z,15.44
2018-06-10T13:52:45.088Z,21.48
2018-06-10T13:55:13.381Z,14.02
2018-06-10T13:57:42.152Z,19.70
2018-06-10T14:00:11.400Z,16.04
2018-06-10T14:02:39.690Z,16.78
2018-06-10T14:05:07.953Z,12.20
2018-06-10T14:07:36.261Z,19.78
2018-06-10T14:10:04.531Z,17.30
2018-06-10T14:12:32.834Z,14.16
2018-06-10T14:15:01.128Z,16.08
2018-06-10T14:17:29.398Z,14.26
2018-06-10T14:19:57.700Z,15.86
2018-06-10T14:22:25.970Z,14.80
2018-06-10T14:24:54.242Z,14.70
2018-06-10T14:27:22.546Z,15.10
2018-06-10T14:29:50.828Z,15.70
2018-06-10T14:32:19.132Z,13.48
2018-06-10T14:34:47.404Z,13.98
2018-06-10T14:37:16.793Z,14.54
2018-06-10T14:39:45.884Z,12.90
2018-06-10T14:42:14.903Z,17.52
2018-06-10T14:44:43.157Z,12.94
2018-06-10T14:47:12.010Z,15.66
2018-06-10T14:49:40.366Z,12.98
2018-06-10T14:52:08.625Z,13.42
2018-06-10T14:54:36.932Z,15.12
2018-06-10T14:57:05.197Z,11.34
2018-06-10T14:59:33.497Z,13.50
2018-06-10T15:02:01.769Z,11.64
2018-06-10T15:04:30.065Z,12.40
2018-06-10T15:06:58.338Z,13.08
2018-06-10T15:09:26.637Z,12.66
2018-06-10T15:11:54.933Z,12.06
2018-06-10T15:14:23.185Z,11.64
2018-06-10T15:16:51.489Z,17.78
2018-06-10T15:19:20.129Z,13.26
2018-06-10T15:21:48.405Z,12.14
2018-06-10T15:24:16.695Z,12.86
2018-06-10T15:26:46.290Z,12.34
2018-06-10T15:29:15.642Z,12.12
2018-06-10T15:31:43.920Z,15.34
2018-06-10T15:34:12.629Z,25.96
2018-06-10T15:36:42.120Z,11.24
2018-06-10T15:39:11.009Z,14.42
2018-06-10T15:41:39.313Z,17.72
2018-06-10T15:44:07.612Z,10.86
2018-06-10T15:46:35.921Z,12.80
2018-06-10T15:49:04.166Z,10.88
2018-06-10T15:51:32.481Z,13.56
2018-06-10T15:54:00.768Z,17.00
2018-06-10T15:56:29.057Z,11.54
2018-06-10T15:58:57.357Z,11.78
2018-06-10T16:01:25.630Z,24.66
2018-06-10T16:03:53.893Z,14.32
2018-06-10T16:06:22.186Z,12.32
2018-06-10T16:08:50.444Z,10.96
2018-06-10T16:11:18.733Z,17.70
2018-06-10T16:13:47.014Z,11.08
2018-06-10T16:16:16.324Z,10.34
2018-06-10T16:18:44.612Z,10.24
2018-06-10T16:21:12.892Z,13.84
2018-06-10T16:23:41.578Z,9.52
2018-06-10T16:26:09.842Z,11.70
2018-06-10T16:28:38.131Z,11.70
2018-06-10T16:31:06.391Z,12.46
2018-06-10T16:33:34.677Z,9.56
2018-06-10T16:36:02.934Z,14.52
2018-06-10T16:38:31.231Z,12.76
2018-06-10T16:40:59.501Z,10.14
2018-06-10T16:43:27.794Z,9.86
2018-06-10T16:45:56.094Z,16.30
2018-06-10T16:48:24.365Z,12.40
2018-06-10T16:50:52.653Z,9.46
2018-06-10T16:53:20.925Z,19.26
2018-06-10T16:55:48.453Z,10.24
2018-06-10T16:58:16.730Z,12.34
2018-06-10T17:00:45.849Z,12.34
2018-06-10T17:03:14.116Z,13.78
2018-06-10T17:05:42.807Z,12.72
2018-06-10T17:08:12.140Z,11.12
2018-06-10T17:10:40.888Z,9.90
2018-06-10T17:13:09.218Z,12.24
2018-06-10T17:15:37.468Z,9.84
2018-06-10T17:18:05.757Z,11.06
2018-06-10T17:20:34.004Z,9.30
2018-06-10T17:23:02.297Z,9.84
2018-06-10T17:25:30.561Z,11.38
2018-06-10T17:27:58.858Z,10.50
2018-06-10T17:30:27.131Z,12.14
2018-06-10T17:32:55.406Z,9.58
2018-06-10T17:35:23.691Z,10.04
2018-06-10T17:37:51.977Z,9.72
2018-06-10T17:40:20.281Z,11.62
2018-06-10T17:42:48.549Z,18.72
2018-06-10T17:45:16.846Z,11.28
2018-06-10T17:47:45.814Z,12.40
2018-06-10T17:50:14.097Z,11.08
2018-06-10T17:52:42.746Z,12.12
2018-06-10T17:55:11.816Z,11.36
2018-06-10T17:57:39.312Z,11.40
2018-06-10T18:00:07.615Z,10.26
2018-06-10T18:02:35.930Z,11.12
2018-06-10T18:05:04.188Z,11.14
2018-06-10T18:07:32.458Z,17.28
2018-06-10T18:10:00.762Z,11.32
2018-06-10T18:12:29.066Z,12.24
2018-06-10T18:14:57.357Z,12.46
2018-06-10T18:17:25.625Z,9.22
2018-06-10T18:19:53.930Z,15.76
2018-06-10T18:22:22.200Z,14.68
2018-06-10T18:24:50.467Z,11.08
2018-06-10T18:27:17.987Z,16.18
2018-06-10T18:29:47.588Z,11.10
2018-06-10T18:32:16.106Z,17.16
2018-06-10T18:34:44.819Z,11.42
2018-06-10T18:37:13.098Z,13.02
2018-06-10T18:39:41.390Z,12.88
2018-06-10T18:42:09.697Z,12.38
2018-06-10T18:44:38.008Z,13.24
2018-06-10T18:47:06.298Z,12.86
2018-06-10T18:49:35.495Z,13.84
2018-06-10T18:52:03.762Z,16.56
2018-06-10T18:54:32.053Z,15.98
2018-06-10T18:57:00.326Z,16.44
2018-06-10T18:59:32.161Z,13.98
2018-06-10T19:02:00.429Z,17.44
2018-06-10T19:04:28.729Z,15.10
2018-06-10T19:06:57.007Z,12.74
2018-06-10T19:09:25.294Z,15.08
2018-06-10T19:11:53.590Z,14.36
2018-06-10T19:14:21.126Z,15.88
2018-06-10T19:16:48.672Z,19.24
2018-06-10T19:19:16.937Z,18.00
2018-06-10T19:21:46.294Z,15.18
2018-06-10T19:24:15.585Z,14.32
2018-06-10T19:26:43.876Z,14.40
2018-06-10T19:29:12.864Z,19.46
2018-06-10T19:31:42.189Z,29.44
2018-06-10T19:34:10.856Z,14.22
2018-06-10T19:36:39.166Z,15.78
2018-06-10T19:39:07.429Z,17.60
2018-06-10T19:41:35.692Z,13.70
2018-06-10T19:44:03.982Z,14.40
2018-06-10T19:46:32.251Z,15.16
2018-06-10T19:49:00.532Z,18.36
2018-06-10T19:51:28.793Z,15.40
2018-06-10T19:53:57.089Z,14.52
2018-06-10T19:56:25.344Z,14.14
2018-06-10T19:58:53.638Z,15.02
2018-06-10T20:01:21.959Z,13.38
2018-06-10T20:03:50.232Z,15.28
2018-06-10T20:06:18.510Z,16.72
2018-06-10T20:08:46.831Z,19.74
2018-06-10T20:11:15.929Z,19.14
2018-06-10T20:13:44.988Z,15.48
2018-06-10T20:16:13.258Z,23.94
2018-06-10T20:18:40.804Z,15.20
2018-06-10T20:21:09.069Z,17.28
2018-06-10T20:23:37.341Z,14.86
2018-06-10T20:26:05.649Z,17.94
2018-06-10T20:28:33.944Z,13.78
2018-06-10T20:31:02.212Z,16.90
2018-06-10T20:33:30.690Z,15.66
2018-06-10T20:35:59.225Z,15.72
2018-06-10T20:38:27.537Z,19.42
2018-06-10T20:40:55.841Z,15.82
2018-06-10T20:43:24.161Z,15.74
2018-06-10T20:45:52.420Z,15.78
2018-06-10T20:48:20.692Z,15.24
2018-06-10T20:50:48.995Z,14.90
2018-06-10T20:53:17.266Z,17.68
2018-06-10T20:55:45.561Z,14.70
2018-06-10T20:58:13.821Z,15.42
2018-06-10T21:00:42.829Z,15.80
2018-06-10T21:03:11.985Z,16.52
2018-06-10T21:05:40.870Z,16.06
2018-06-10T21:08:09.147Z,16.88
2018-06-10T21:10:37.410Z,16.46
2018-06-10T21:13:05.710Z,17.10
2018-06-10T21:15:34.015Z,14.96
2018-06-10T21:18:01.536Z,18.10
2018-06-10T21:20:31.718Z,14.70
2018-06-10T21:23:00.015Z,19.62
2018-06-10T21:25:28.324Z,18.26
2018-06-10T21:27:56.597Z,17.16
2018-06-10T21:30:24.897Z,17.40
2018-06-10T21:32:53.185Z,17.00
2018-06-10T21:35:21.514Z,17.58
2018-06-10T21:37:49.786Z,26.52
2018-06-10T21:40:18.092Z,20.36
2018-06-10T21:42:48.917Z,16.94
2018-06-10T21:45:17.180Z,16.76
2018-06-10T21:47:45.479Z,19.08
2018-06-10T21:50:13.746Z,21.22
2018-06-10T21:52:42.764Z,19.68
2018-06-10T21:55:12.377Z,18.82
2018-06-10T21:57:41.532Z,19.28
2018-06-10T22:00:09.821Z,18.40
2018-06-10T22:02:38.112Z,16.60
2018-06-10T22:05:06.405Z,26.76
2018-06-10T22:07:34.806Z,15.84
2018-06-10T22:10:03.081Z,15.60
2018-06-10T22:12:31.354Z,19.02
2018-06-10T22:14:59.650Z,18.18
2018-06-10T22:17:27.929Z,20.06
2018-06-10T22:19:56.235Z,24.38
2018-06-10T22:22:24.534Z,17.24
2018-06-10T22:24:52.837Z,14.66
2018-06-10T22:27:20.332Z,17.26
2018-06-10T22:29:48.603Z,15.86
2018-06-10T22:32:16.904Z,15.94
2018-06-10T22:34:44.405Z,15.54
2018-06-10T22:37:12.715Z,14.50
2018-06-10T22:39:41.801Z,14.16
2018-06-10T22:42:10.093Z,13.66
2018-06-10T22:44:38.363Z,15.84
2018-06-10T22:47:06.657Z,14.44
2018-06-10T22:49:34.921Z,13.92
2018-06-10T22:52:03.225Z,14.20
2018-06-10T22:54:33.433Z,13.26
2018-06-10T22:57:01.730Z,14.94
2018-06-10T22:59:30.014Z,13.44
2018-06-10T23:01:58.286Z,14.02
2018-06-10T23:04:27.495Z,13.36
2018-06-10T23:06:55.793Z,11.64
2018-06-10T23:09:24.089Z,15.68
2018-06-10T23:11:51.592Z,12.82
2018-06-10T23:14:19.892Z,17.76
2018-06-10T23:16:48.163Z,15.66
2018-06-10T23:19:16.459Z,15.00
2018-06-10T23:21:45.664Z,14.40
2018-06-10T23:24:14.009Z,13.60
2018-06-10T23:26:43.103Z,19.28
2018-06-10T23:29:11.533Z,16.00
2018-06-10T23:31:39.837Z,14.32
2018-06-10T23:34:12.854Z,17.28
2018-06-10T23:36:40.855Z,20.70
2018-06-10T23:39:09.161Z,17.02
2018-06-10T23:41:37.428Z,12.32
2018-06-10T23:44:06.652Z,15.48
2018-06-10T23:46:34.969Z,16.84
2018-06-10T23:49:03.242Z,20.12
2018-06-10T23:51:31.540Z,16.34
2018-06-10T23:53:59.848Z,17.56
2018-06-10T23:56:28.129Z,14.78
2018-06-10T23:58:56.429Z,17.70
